createdAt,value
2018-05-01T00:01:23.313Z,76.49
2018-05-01T00:03:52.638Z,76.02
2018-05-01T00:06:21.928Z,75.81
2018-05-01T00:08:51.240Z,76.00
2018-05-01T00:11:20.562Z,76.25
2018-05-01T00:13:49.842Z,76.31
2018-05-01T00:16:19.125Z,75.91
2018-05-01T00:18:48.470Z,76.03
2018-05-01T00:21:17.823Z,76.83
2018-05-01T00:23:47.130Z,76.76
2018-05-01T00:26:16.432Z,76.49
2018-05-01T00:28:45.736Z,77.14
2018-05-01T00:31:15.028Z,76.48
2018-05-01T00:33:44.338Z,76.17
2018-05-01T00:36:13.632Z,76.37
2018-05-01T00:38:42.949Z,76.73
2018-05-01T00:41:12.237Z,76.58
2018-05-01T00:43:41.561Z,76.34
2018-05-01T00:46:10.850Z,77.25
2018-05-01T00:48:40.160Z,77.00
2018-05-01T00:51:09.455Z,77.54
2018-05-01T00:53:38.778Z,76.45
2018-05-01T00:56:08.049Z,77.23
2018-05-01T00:58:37.396Z,75.80
2018-05-01T01:01:06.711Z,77.28
2018-05-01T01:03:36.783Z,76.61
2018-05-01T01:06:06.074Z,76.89
2018-05-01T01:08:35.381Z,76.84
2018-05-01T01:11:04.681Z,76.51
2018-05-01T01:13:34.005Z,76.88
2018-05-01T01:16:03.288Z,76.65
2018-05-01T01:18:32.589Z,76.77
2018-05-01T01:21:01.924Z,77.03
2018-05-01T01:23:31.234Z,76.90
2018-05-01T01:26:00.539Z,77.01
2018-05-01T01:28:29.854Z,76.93
2018-05-01T01:31:00.568Z,77.38
2018-05-01T01:33:29.889Z,76.72
2018-05-01T01:35:58.394Z,77.71
2018-05-01T01:38:26.886Z,77.18
2018-05-01T01:40:55.405Z,77.02
2018-05-01T01:43:23.889Z,77.50
2018-05-01T01:45:52.507Z,77.46
2018-05-01T01:48:21.015Z,77.74
2018-05-01T01:50:49.540Z,77.61
2018-05-01T01:53:18.039Z,77.02
2018-05-01T01:55:46.544Z,77.46
2018-05-01T01:58:15.892Z,78.11
2018-05-01T02:00:44.419Z,77.58
2018-05-01T02:03:12.925Z,77.65
2018-05-01T02:05:42.186Z,77.82
2018-05-01T02:08:10.740Z,77.94
2018-05-01T02:10:39.245Z,77.36
2018-05-01T02:13:07.733Z,77.39
2018-05-01T02:15:36.264Z,77.58
2018-05-01T02:18:05.529Z,77.62
2018-05-01T02:20:34.031Z,77.94
2018-05-01T02:23:02.543Z,76.91
2018-05-01T02:25:31.043Z,76.98
2018-05-01T02:27:59.542Z,77.04
2018-05-01T02:30:28.051Z,76.98
2018-05-01T02:32:56.566Z,77.45
2018-05-01T02:35:25.851Z,77.36
2018-05-01T02:37:55.110Z,77.08
2018-05-01T02:40:24.577Z,76.65
2018-05-01T02:42:53.836Z,76.76
2018-05-01T02:45:22.359Z,76.87
2018-05-01T02:47:51.637Z,77.19
2018-05-01T02:50:20.175Z,77.06
2018-05-01T02:52:48.674Z,76.96
2018-05-01T02:55:17.183Z,77.33
2018-05-01T02:57:45.704Z,77.07
2018-05-01T03:00:14.198Z,77.05
2018-05-01T03:02:42.689Z,77.27
2018-05-01T03:05:11.203Z,76.86
2018-05-01T03:07:39.718Z,76.89
2018-05-01T03:10:08.978Z,77.12
2018-05-01T03:12:37.495Z,76.64
2018-05-01T03:15:06.772Z,76.21
2018-05-01T03:17:35.277Z,76.88
2018-05-01T03:20:03.782Z,76.50
2018-05-01T03:22:32.295Z,76.77
2018-05-01T03:25:00.807Z,77.26
2018-05-01T03:27:29.307Z,77.09
2018-05-01T03:29:58.575Z,76.69
2018-05-01T03:32:27.092Z,76.64
2018-05-01T03:34:55.666Z,77.12
2018-05-01T03:37:24.103Z,76.97
2018-05-01T03:39:52.656Z,76.92
2018-05-01T03:42:21.910Z,76.72
2018-05-01T03:44:50.427Z,76.77
2018-05-01T03:47:24.047Z,77.04
2018-05-01T03:49:57.817Z,76.29
2018-05-01T03:52:32.440Z,76.21
2018-05-01T03:55:06.289Z,76.47
2018-05-01T03:57:40.143Z,76.38
2018-05-01T04:00:14.750Z,76.80
2018-05-01T04:02:48.518Z,76.59
2018-05-01T04:05:23.109Z,76.46
2018-05-01T04:07:57.054Z,76.03
2018-05-01T04:10:30.745Z,76.03
2018-05-01T04:13:04.439Z,76.85
2018-05-01T04:15:38.157Z,76.63
2018-05-01T04:18:12.118Z,76.50
2018-05-01T04:20:45.716Z,76.34
2018-05-01T04:23:19.389Z,75.42
2018-05-01T04:25:53.202Z,75.97
2018-05-01T04:28:28.533Z,75.74
2018-05-01T04:31:02.332Z,75.73
2018-05-01T04:33:36.038Z,75.92
2018-05-01T04:36:09.738Z,75.39
2018-05-01T04:38:43.452Z,75.30
2018-05-01T04:41:17.179Z,75.34
2018-05-01T04:43:51.072Z,75.48
2018-05-01T04:46:25.585Z,75.89
2018-05-01T04:48:59.473Z,75.17
2018-05-01T04:51:33.180Z,75.78
2018-05-01T04:54:07.082Z,75.26
2018-05-01T04:56:40.809Z,74.53
2018-05-01T04:59:14.605Z,74.77
2018-05-01T05:01:48.513Z,74.27
2018-05-01T05:04:22.297Z,75.17
2018-05-01T05:06:56.254Z,75.04
2018-05-01T05:09:30.028Z,74.98
2018-05-01T05:12:03.690Z,74.78
2018-05-01T05:14:37.521Z,75.01
2018-05-01T05:17:12.114Z,74.79
2018-05-01T05:19:45.725Z,74.61
2018-05-01T05:22:19.546Z,74.09
2018-05-01T05:24:53.395Z,74.25
2018-05-01T05:27:27.303Z,74.46
2018-05-01T05:30:01.837Z,74.14
2018-05-01T05:32:36.396Z,74.33
2018-05-01T05:35:10.231Z,74.53
2018-05-01T05:37:44.126Z,74.87
2018-05-01T05:40:18.702Z,74.24
2018-05-01T05:42:52.726Z,74.28
2018-05-01T05:45:26.375Z,74.30
2018-05-01T05:48:01.048Z,74.51
2018-05-01T05:50:34.902Z,74.30
2018-05-01T05:53:09.405Z,74.20
2018-05-01T05:55:43.133Z,73.83
2018-05-01T05:58:17.713Z,73.70
2018-05-01T06:00:51.557Z,73.74
2018-05-01T06:03:26.038Z,73.75
2018-05-01T06:05:59.885Z,72.67
2018-05-01T06:08:34.378Z,72.04
2018-05-01T06:11:08.191Z,72.59
2018-05-01T06:13:41.953Z,71.72
2018-05-01T06:16:15.799Z,71.18
2018-05-01T06:18:49.646Z,71.48
2018-05-01T06:21:23.257Z,71.71
2018-05-01T06:23:58.014Z,71.64
2018-05-01T06:26:31.773Z,71.42
2018-05-01T06:29:05.664Z,71.34
2018-05-01T06:31:39.508Z,71.07
2018-05-01T06:34:13.305Z,72.61
2018-05-01T06:36:47.083Z,71.23
2018-05-01T06:39:20.849Z,70.99
2018-05-01T06:41:54.814Z,70.82
2018-05-01T06:44:28.485Z,70.85
2018-05-01T06:47:02.407Z,71.09
2018-05-01T06:49:37.059Z,70.54
2018-05-01T06:52:11.557Z,70.96
2018-05-01T06:54:46.116Z,70.18
2018-05-01T06:57:20.630Z,70.65
2018-05-01T06:59:54.483Z,69.71
2018-05-01T07:02:28.345Z,69.45
2018-05-01T07:05:02.166Z,69.14
2018-05-01T07:07:35.973Z,69.33
2018-05-01T07:10:10.429Z,69.12
2018-05-01T07:12:44.263Z,68.64
2018-05-01T07:15:18.928Z,68.17
2018-05-01T07:17:52.661Z,68.31
2018-05-01T07:20:26.460Z,67.47
2018-05-01T07:23:00.335Z,67.58
2018-05-01T07:25:34.055Z,66.89
2018-05-01T07:28:07.697Z,67.02
2018-05-01T07:30:41.399Z,66.07
2018-05-01T07:33:15.386Z,66.54
2018-05-01T07:35:49.064Z,65.35
2018-05-01T07:38:22.889Z,64.86
2018-05-01T07:40:56.686Z,64.51
2018-05-01T07:43:31.281Z,65.25
2018-05-01T07:46:05.194Z,62.89
2018-05-01T07:48:38.934Z,62.63
2018-05-01T07:51:13.458Z,61.71
2018-05-01T07:53:47.344Z,61.75
2018-05-01T07:56:21.902Z,60.95
2018-05-01T07:58:55.809Z,61.03
2018-05-01T08:01:29.507Z,60.98
2018-05-01T08:04:03.348Z,60.62
2018-05-01T08:06:36.945Z,58.94
2018-05-01T08:09:10.741Z,58.37
2018-05-01T08:11:44.571Z,57.50
2018-05-01T08:14:18.427Z,57.09
2018-05-01T08:16:52.202Z,57.60
2018-05-01T08:19:26.755Z,58.01
2018-05-01T08:22:00.634Z,57.62
2018-05-01T08:24:34.694Z,56.17
2018-05-01T08:27:08.500Z,55.79
2018-05-01T08:29:42.264Z,53.95
2018-05-01T08:32:16.100Z,53.47
2018-05-01T08:34:49.855Z,52.94
2018-05-01T08:37:23.757Z,53.74
2018-05-01T08:39:57.552Z,52.90
2018-05-01T08:42:32.068Z,53.06
2018-05-01T08:45:05.779Z,53.02
2018-05-01T08:47:39.574Z,51.06
2018-05-01T08:50:13.441Z,49.52
2018-05-01T08:52:47.354Z,50.08
2018-05-01T08:55:21.098Z,49.06
2018-05-01T08:57:55.516Z,49.22
2018-05-01T09:00:30.061Z,47.81
2018-05-01T09:03:03.907Z,48.24
2018-05-01T09:05:37.687Z,48.12
2018-05-01T09:08:12.190Z,45.76
2018-05-01T09:10:46.690Z,46.78
2018-05-01T09:13:20.605Z,47.63
2018-05-01T09:15:54.423Z,46.13
2018-05-01T09:18:28.316Z,46.61
2018-05-01T09:21:02.047Z,45.91
2018-05-01T09:23:36.471Z,46.81
2018-05-01T09:26:10.326Z,47.18
2018-05-01T09:28:44.805Z,47.18
2018-05-01T09:31:19.277Z,46.07
2018-05-01T09:33:53.159Z,46.30
2018-05-01T09:36:27.024Z,44.74
2018-05-01T09:39:00.760Z,43.86
2018-05-01T09:41:34.539Z,44.11
2018-05-01T09:44:08.988Z,43.51
2018-05-01T09:46:42.746Z,42.52
2018-05-01T09:49:16.722Z,43.29
2018-05-01T09:51:50.570Z,43.87
2018-05-01T09:54:25.055Z,43.33
2018-05-01T09:56:59.649Z,43.68
2018-05-01T09:59:34.243Z,42.46
2018-05-01T10:02:08.846Z,43.24
2018-05-01T10:04:43.224Z,42.09
2018-05-01T10:07:17.800Z,42.05
2018-05-01T10:09:52.445Z,42.01
2018-05-01T10:12:26.869Z,40.95
2018-05-01T10:15:01.380Z,41.46
2018-05-01T10:17:35.860Z,42.01
2018-05-01T10:20:10.461Z,41.30
2018-05-01T10:22:45.080Z,41.47
2018-05-01T10:25:19.790Z,41.53
2018-05-01T10:27:54.469Z,40.75
2018-05-01T10:30:29.947Z,41.36
2018-05-01T10:33:04.607Z,42.54
2018-05-01T10:35:39.946Z,40.85
2018-05-01T10:38:14.595Z,41.22
2018-05-01T10:40:49.174Z,41.78
2018-05-01T10:43:23.770Z,43.04
2018-05-01T10:45:58.376Z,43.03
2018-05-01T10:48:33.016Z,41.71
2018-05-01T10:51:08.319Z,41.28
2018-05-01T10:53:42.972Z,41.98
2018-05-01T10:56:18.192Z,42.62
2018-05-01T10:58:53.522Z,41.16
2018-05-01T11:01:28.257Z,41.78
2018-05-01T11:04:02.783Z,42.73
2018-05-01T11:06:38.100Z,42.35
2018-05-01T11:09:12.722Z,42.16
2018-05-01T11:11:47.299Z,40.91
2018-05-01T11:14:21.772Z,40.20
2018-05-01T11:16:56.277Z,40.01
2018-05-01T11:19:30.819Z,39.89
2018-05-01T11:22:05.537Z,39.38
2018-05-01T11:24:40.228Z,40.24
2018-05-01T11:27:15.153Z,40.75
2018-05-01T11:29:50.543Z,40.70
2018-05-01T11:32:25.256Z,39.77
2018-05-01T11:34:59.840Z,39.23
2018-05-01T11:37:35.037Z,39.50
2018-05-01T11:40:10.337Z,40.56
2018-05-01T11:42:45.048Z,39.35
2018-05-01T11:45:19.579Z,39.59
2018-05-01T11:47:55.055Z,37.98
2018-05-01T11:50:29.613Z,38.02
2018-05-01T11:53:04.397Z,38.00
2018-05-01T11:55:39.065Z,39.16
2018-05-01T11:58:13.555Z,37.79
2018-05-01T12:00:48.115Z,38.45
2018-05-01T12:03:22.818Z,38.38
2018-05-01T12:05:57.494Z,39.37
2018-05-01T12:08:32.146Z,38.24
2018-05-01T12:11:06.769Z,37.87
2018-05-01T12:13:41.516Z,38.50
2018-05-01T12:16:16.155Z,37.19
2018-05-01T12:18:50.880Z,36.80
2018-05-01T12:21:25.392Z,35.49
2018-05-01T12:24:00.781Z,35.90
2018-05-01T12:26:35.316Z,35.00
2018-05-01T12:29:09.773Z,34.84
2018-05-01T12:31:44.397Z,33.81
2018-05-01T12:34:18.906Z,33.17
2018-05-01T12:36:53.534Z,33.25
2018-05-01T12:39:28.114Z,33.51
2018-05-01T12:42:02.685Z,33.79
2018-05-01T12:44:37.330Z,34.40
2018-05-01T12:47:11.944Z,32.94
2018-05-01T12:49:46.664Z,32.27
2018-05-01T12:52:21.327Z,30.53
2018-05-01T12:54:55.995Z,30.54
2018-05-01T12:57:30.579Z,30.52
2018-05-01T13:00:05.189Z,30.29
2018-05-01T13:02:39.913Z,30.25
2018-05-01T13:05:15.378Z,29.58
2018-05-01T13:07:50.489Z,30.31
2018-05-01T13:10:25.062Z,28.92
2018-05-01T13:12:59.478Z,28.00
2018-05-01T13:15:34.166Z,28.35
2018-05-01T13:18:09.530Z,25.44
2018-05-01T13:20:44.154Z,25.73
2018-05-01T13:23:19.492Z,24.74
2018-05-01T13:25:54.159Z,24.42
2018-05-01T13:28:28.771Z,24.74
2018-05-01T13:31:03.192Z,23.31
2018-05-01T13:33:37.588Z,23.74
2018-05-01T13:36:12.933Z,24.54
2018-05-01T13:38:47.564Z,23.79
2018-05-01T13:41:22.094Z,25.10
2018-05-01T13:43:56.482Z,25.37
2018-05-01T13:46:31.008Z,25.03
2018-05-01T13:49:05.652Z,25.48
2018-05-01T13:51:40.235Z,25.32
2018-05-01T13:54:14.831Z,25.65
2018-05-01T13:56:50.144Z,26.42
2018-05-01T13:59:24.653Z,26.78
2018-05-01T14:01:59.400Z,26.78
2018-05-01T14:04:34.072Z,27.04
2018-05-01T14:07:09.481Z,26.26
2018-05-01T14:09:44.111Z,27.39
2018-05-01T14:12:18.687Z,28.45
2018-05-01T14:14:53.267Z,28.54
2018-05-01T14:17:27.898Z,29.19
2018-05-01T14:20:02.287Z,28.11
2018-05-01T14:22:37.646Z,27.55
2018-05-01T14:25:12.269Z,27.26
2018-05-01T14:27:46.882Z,25.60
2018-05-01T14:30:21.613Z,26.42
2018-05-01T14:32:57.061Z,26.52
2018-05-01T14:35:31.718Z,26.84
2018-05-01T14:38:06.351Z,26.82
2018-05-01T14:40:40.913Z,26.49
2018-05-01T14:43:15.514Z,26.52
2018-05-01T14:45:50.041Z,26.76
2018-05-01T14:48:24.730Z,27.50
2018-05-01T14:50:59.358Z,26.50
2018-05-01T14:53:34.001Z,25.62
2018-05-01T14:56:08.592Z,25.96
2018-05-01T14:58:43.175Z,26.85
2018-05-01T15:01:17.774Z,27.21
2018-05-01T15:03:52.384Z,26.77
2018-05-01T15:06:27.667Z,26.77
2018-05-01T15:09:02.215Z,25.54
2018-05-01T15:11:37.628Z,24.95
2018-05-01T15:14:12.204Z,25.79
2018-05-01T15:16:46.847Z,25.83
2018-05-01T15:19:21.308Z,25.71
2018-05-01T15:21:55.906Z,25.14
2018-05-01T15:24:30.465Z,25.32
2018-05-01T15:27:05.039Z,25.42
2018-05-01T15:29:39.706Z,25.76
2018-05-01T15:32:14.333Z,26.12
2018-05-01T15:34:48.735Z,25.92
2018-05-01T15:37:23.223Z,26.04
2018-05-01T15:39:57.711Z,26.13
2018-05-01T15:42:32.234Z,26.55
2018-05-01T15:45:06.772Z,26.54
2018-05-01T15:47:41.278Z,26.67
2018-05-01T15:50:15.680Z,26.40
2018-05-01T15:52:51.157Z,25.52
2018-05-01T15:55:25.637Z,25.88
2018-05-01T15:58:00.249Z,27.01
2018-05-01T16:00:34.915Z,26.90
2018-05-01T16:03:09.370Z,26.28
2018-05-01T16:05:44.552Z,26.16
2018-05-01T16:08:19.121Z,25.71
2018-05-01T16:10:53.644Z,26.24
2018-05-01T16:13:28.222Z,27.37
2018-05-01T16:16:02.621Z,26.82
2018-05-01T16:18:37.296Z,26.76
2018-05-01T16:21:11.926Z,27.06
2018-05-01T16:23:46.619Z,26.45
2018-05-01T16:26:21.178Z,27.32
2018-05-01T16:28:55.598Z,27.88
2018-05-01T16:31:30.256Z,28.38
2018-05-01T16:34:04.872Z,28.55
2018-05-01T16:36:39.561Z,29.07
2018-05-01T16:39:14.954Z,29.34
2018-05-01T16:41:50.151Z,28.05
2018-05-01T16:44:24.794Z,28.55
2018-05-01T16:46:59.166Z,28.59
2018-05-01T16:49:33.762Z,28.97
2018-05-01T16:52:08.980Z,29.43
2018-05-01T16:54:44.397Z,28.41
2018-05-01T16:57:19.730Z,28.59
2018-05-01T16:59:54.229Z,28.94
2018-05-01T17:02:28.823Z,29.08
2018-05-01T17:05:03.474Z,29.21
2018-05-01T17:07:38.766Z,29.07
2018-05-01T17:10:13.386Z,28.81
2018-05-01T17:12:48.122Z,28.79
2018-05-01T17:15:22.768Z,28.95
2018-05-01T17:17:57.241Z,29.35
2018-05-01T17:20:31.887Z,29.39
2018-05-01T17:23:06.395Z,29.30
2018-05-01T17:25:41.021Z,29.44
2018-05-01T17:28:15.687Z,29.39
2018-05-01T17:30:50.759Z,29.97
2018-05-01T17:33:25.326Z,29.84
2018-05-01T17:35:59.892Z,30.16
2018-05-01T17:38:34.495Z,29.85
2018-05-01T17:41:08.918Z,30.60
2018-05-01T17:43:43.414Z,30.67
2018-05-01T17:46:18.144Z,30.53
2018-05-01T17:48:53.457Z,30.79
2018-05-01T17:51:28.080Z,31.03
2018-05-01T17:54:02.573Z,31.20
2018-05-01T17:56:37.163Z,31.03
2018-05-01T17:59:11.620Z,31.33
2018-05-01T18:01:46.183Z,31.57
2018-05-01T18:04:20.712Z,31.55
2018-05-01T18:06:55.917Z,31.76
2018-05-01T18:09:30.465Z,32.01
2018-05-01T18:12:04.964Z,32.05
2018-05-01T18:14:39.535Z,32.28
2018-05-01T18:17:14.105Z,32.83
2018-05-01T18:19:48.783Z,33.41
2018-05-01T18:22:23.270Z,33.04
2018-05-01T18:24:57.833Z,33.48
2018-05-01T18:27:32.440Z,33.53
2018-05-01T18:30:07.009Z,33.56
2018-05-01T18:32:41.790Z,33.75
2018-05-01T18:35:16.417Z,34.02
2018-05-01T18:37:50.998Z,34.35
2018-05-01T18:40:25.575Z,34.41
2018-05-01T18:43:00.899Z,34.56
2018-05-01T18:45:35.450Z,34.94
2018-05-01T18:48:10.046Z,35.27
2018-05-01T18:50:44.555Z,35.52
2018-05-01T18:53:19.034Z,36.20
2018-05-01T18:55:53.606Z,36.14
2018-05-01T18:58:28.255Z,36.75
2018-05-01T19:01:02.773Z,36.93
2018-05-01T19:03:38.247Z,37.23
2018-05-01T19:06:13.449Z,37.72
2018-05-01T19:08:48.167Z,38.23
2018-05-01T19:11:22.806Z,38.97
2018-05-01T19:13:57.490Z,39.75
2018-05-01T19:16:32.758Z,40.05
2018-05-01T19:19:07.385Z,40.57
2018-05-01T19:21:41.932Z,41.09
2018-05-01T19:24:17.194Z,41.41
2018-05-01T19:26:51.801Z,41.78
2018-05-01T19:29:26.999Z,42.08
2018-05-01T19:32:01.518Z,42.73
2018-05-01T19:34:36.091Z,43.17
2018-05-01T19:37:10.602Z,43.74
2018-05-01T19:39:45.135Z,44.21
2018-05-01T19:42:19.787Z,44.69
2018-05-01T19:44:54.527Z,44.97
2018-05-01T19:47:29.154Z,45.36
2018-05-01T19:50:03.687Z,46.27
2018-05-01T19:52:39.165Z,46.17
2018-05-01T19:55:14.673Z,46.32
2018-05-01T19:57:50.074Z,46.69
2018-05-01T20:00:24.741Z,46.88
2018-05-01T20:02:59.391Z,47.51
2018-05-01T20:05:34.786Z,47.98
2018-05-01T20:08:09.520Z,48.27
2018-05-01T20:10:44.009Z,48.67
2018-05-01T20:13:18.638Z,48.95
2018-05-01T20:15:53.286Z,49.36
2018-05-01T20:18:28.655Z,49.59
2018-05-01T20:21:03.202Z,50.01
2018-05-01T20:23:37.828Z,50.45
2018-05-01T20:26:12.514Z,50.74
2018-05-01T20:28:47.173Z,51.25
2018-05-01T20:31:21.811Z,51.27
2018-05-01T20:33:56.468Z,51.21
2018-05-01T20:36:31.786Z,51.44
2018-05-01T20:39:07.206Z,51.17
2018-05-01T20:41:42.499Z,51.67
2018-05-01T20:44:17.182Z,51.59
2018-05-01T20:46:51.911Z,51.53
2018-05-01T20:49:26.528Z,51.60
2018-05-01T20:52:01.492Z,51.60
2018-05-01T20:54:36.033Z,51.69
2018-05-01T20:57:11.453Z,51.50
2018-05-01T20:59:46.022Z,51.47
2018-05-01T21:02:20.754Z,51.60
2018-05-01T21:04:56.151Z,51.71
2018-05-01T21:07:30.779Z,51.74
2018-05-01T21:10:06.119Z,51.83
2018-05-01T21:12:40.701Z,52.03
2018-05-01T21:15:15.475Z,51.58
2018-05-01T21:17:50.053Z,51.89
2018-05-01T21:20:25.751Z,52.20
2018-05-01T21:23:00.326Z,52.13
2018-05-01T21:25:34.939Z,52.43
2018-05-01T21:28:09.458Z,52.32
2018-05-01T21:30:44.023Z,52.64
2018-05-01T21:33:18.567Z,52.58
2018-05-01T21:35:52.986Z,52.72
2018-05-01T21:38:28.212Z,52.73
2018-05-01T21:41:03.552Z,52.81
2018-05-01T21:43:38.156Z,52.87
2018-05-01T21:46:12.755Z,53.04
2018-05-01T21:48:47.315Z,53.42
2018-05-01T21:51:21.937Z,53.40
2018-05-01T21:53:57.331Z,53.53
2018-05-01T21:56:31.912Z,53.78
2018-05-01T21:59:06.388Z,54.42
2018-05-01T22:01:41.631Z,54.10
2018-05-01T22:04:16.279Z,54.04
2018-05-01T22:06:50.730Z,54.42
2018-05-01T22:09:25.343Z,54.66
2018-05-01T22:11:59.994Z,54.69
2018-05-01T22:14:34.571Z,54.04
2018-05-01T22:17:09.102Z,53.97
2018-05-01T22:19:44.460Z,54.57
2018-05-01T22:22:18.960Z,54.28
2018-05-01T22:24:53.378Z,54.36
2018-05-01T22:27:28.066Z,54.42
2018-05-01T22:30:02.548Z,54.64
2018-05-01T22:32:37.218Z,54.63
2018-05-01T22:35:12.570Z,54.80
2018-05-01T22:37:47.125Z,55.40
2018-05-01T22:40:21.725Z,55.08
2018-05-01T22:42:56.135Z,55.22
2018-05-01T22:45:31.480Z,54.98
2018-05-01T22:48:06.130Z,54.88
2018-05-01T22:50:40.742Z,54.74
2018-05-01T22:53:15.085Z,54.65
2018-05-01T22:55:49.605Z,54.59
2018-05-01T22:58:24.142Z,54.79
2018-05-01T23:00:58.626Z,54.88
2018-05-01T23:03:33.338Z,54.93
2018-05-01T23:06:07.867Z,55.09
2018-05-01T23:08:43.149Z,55.09
2018-05-01T23:11:17.622Z,55.29
2018-05-01T23:13:52.174Z,55.49
2018-05-01T23:16:27.419Z,55.80
2018-05-01T23:19:02.018Z,55.59
2018-05-01T23:21:36.441Z,55.74
2018-05-01T23:24:11.053Z,55.82
2018-05-01T23:26:45.653Z,55.67
2018-05-01T23:29:20.331Z,55.81
2018-05-01T23:31:55.580Z,55.68
2018-05-01T23:34:30.084Z,55.82
2018-05-01T23:37:04.606Z,55.93
2018-05-01T23:39:39.169Z,56.04
2018-05-01T23:42:13.741Z,56.08
2018-05-01T23:44:48.364Z,56.52
2018-05-01T23:47:22.705Z,56.54
2018-05-01T23:49:57.425Z,56.52
2018-05-01T23:52:32.568Z,56.78
2018-05-01T23:55:07.918Z,56.67
2018-05-01T23:57:42.535Z,56.60
